Porosity — WDF7776 — position and weather

sailwx.info

Track history (hours):
 
Tides and Currents Weather Stations Pressure Air Temp Water Temp Dewpoint Dewpoint Depression Visibility Wind Speed Wind Dir Waves Ship Positions

Porosity

Owner: Bahlburg, Bill, plano, TX. More information available from US FCC via Universal Licensing System and Coast Guard Vessel Documentation Center.

Last reported at 2017-Jul-23 17:44 UTC. Time now 2017-Aug-18 02:43 UTC.
Position N 51°53' W 127°57'.
Warning: this ship's position is 25 days out of date.

Length 19 m.

Type: Pleasure craft. MMSI: 367488010.

Date/timePositionNaut miles runAvg speedWind from/ knotsBaromVisibWave heightAir tempDewpointWater temp
2017-Jul-23 17:44N 51°53' W 127°57'2 8.5
2017-Jul-23 17:29N 51°51' W 127°56'4 8.6
2017-Jul-23 17:00N 51°47' W 127°56'4 8.7
2017-Jul-23 16:30N 51°42' W 127°55'4 8.9
2017-Jul-23 16:00N 51°38' W 127°54'31 1.7
2017-Jul-22 22:11N 51°07' W 127°46'2 8.5
2017-Jul-22 22:00N 51°06' W 127°44'4 8.5
2017-Jul-22 21:30N 51°03' W 127°40'4 8.7
2017-Jul-22 21:00N 50°60' W 127°36'4 8.1
2017-Jul-22 20:31N 50°57' W 127°31'4 7.6
2017-Jul-22 20:00N 50°54' W 127°27'3 6.6
2017-Jul-22 19:30N 50°51' W 127°24'4 8.3
2017-Jul-22 19:01N 50°48' W 127°21'4 8.5
2017-Jul-22 18:30N 50°44' W 127°17'4 8.6
2017-Jul-22 18:01N 50°41' W 127°13'4 8.1
2017-Jul-22 17:31N 50°37' W 127°09'4 7.5
2017-Jul-22 17:01N 50°36' W 127°04'1 2.7
2017-Jul-22 16:30N 50°36' W 127°05'0 0.0
2017-Jul-22 16:00N 50°36' W 127°05'0 0.0
2017-Jul-22 15:30N 50°36' W 127°05'0 0.0
2017-Jul-22 15:00N 50°36' W 127°05'0 0.0
2017-Jul-22 14:00N 50°36' W 127°05'0 0.0
2017-Jul-22 13:30N 50°36' W 127°05'0 0.0
2017-Jul-22 13:00N 50°36' W 127°05'0 0.0
2017-Jul-22 12:30N 50°36' W 127°05'0 0.0
2017-Jul-22 12:00N 50°36' W 127°05'0 0.0
2017-Jul-22 11:30N 50°36' W 127°05'0 0.0
2017-Jul-22 11:00N 50°36' W 127°05'0 0.0
2017-Jul-22 10:30N 50°36' W 127°05'0 0.0
2017-Jul-22 10:00N 50°36' W 127°05'0 0.0
2017-Jul-22 09:30N 50°36' W 127°05'0 0.0
2017-Jul-22 09:00N 50°36' W 127°05'0 0.0
2017-Jul-22 08:30N 50°36' W 127°05'0 0.0
2017-Jul-22 08:00N 50°36' W 127°05'0 0.0
2017-Jul-22 07:30N 50°36' W 127°05'0 0.0
2017-Jul-22 07:00N 50°36' W 127°05'0 0.0
2017-Jul-22 06:21N 50°36' W 127°05'0 0.0
2017-Jul-22 05:57N 50°36' W 127°05'69 1.8
2017-Jul-20 15:46N 50°14' W 125°23'3 9.5
2017-Jul-20 15:30N 50°12' W 125°22'5 9.9
2017-Jul-20 15:00N 50°07' W 125°19'6 5.9
2017-Jul-20 13:59N 50°02' W 125°15'0 0.0
2017-Jul-20 13:29N 50°02' W 125°15'0 0.0
2017-Jul-20 12:59N 50°02' W 125°15'0 0.0
2017-Jul-20 12:29N 50°02' W 125°15'0 0.0
2017-Jul-20 11:59N 50°02' W 125°15'0 0.0
2017-Jul-20 11:29N 50°02' W 125°15'0 0.0
2017-Jul-20 10:59N 50°02' W 125°15'0 0.0
2017-Jul-20 10:29N 50°02' W 125°15'0 0.0
2017-Jul-20 09:59N 50°02' W 125°15'0 0.0
2017-Jul-20 09:29N 50°02' W 125°15'0 0.0
2017-Jul-20 08:59N 50°02' W 125°15'0 0.0
2017-Jul-20 08:29N 50°02' W 125°15'0 0.0
2017-Jul-20 07:59N 50°02' W 125°15'0 0.0
2017-Jul-20 07:29N 50°02' W 125°15'0 0.0
2017-Jul-20 06:59N 50°02' W 125°15'0 0.0
2017-Jul-20 06:29N 50°02' W 125°15'0 0.0
2017-Jul-20 05:59N 50°02' W 125°15'0 0.0
2017-Jul-20 05:29N 50°02' W 125°15'0 0.0
2017-Jul-20 04:59N 50°02' W 125°15'0 0.0
2017-Jul-20 04:29N 50°02' W 125°15'0 0.0
2017-Jul-20 03:59N 50°02' W 125°15'0 0.0
2017-Jul-20 03:29N 50°02' W 125°15'0 0.0
2017-Jul-20 02:59N 50°02' W 125°15'0 0.0
2017-Jul-20 02:29N 50°02' W 125°15'0 0.0
2017-Jul-20 01:59N 50°02' W 125°15'0 0.0
2017-Jul-20 01:29N 50°02' W 125°15'0 0.0
2017-Jul-20 00:59N 50°02' W 125°15'0 0.0
2017-Jul-20 00:29N 50°02' W 125°15'0 0.0
2017-Jul-19 23:59N 50°02' W 125°15'0 0.0
2017-Jul-19 23:23N 50°02' W 125°15'0 0.0
2017-Jul-19 22:59N 50°02' W 125°15'0 0.0
2017-Jul-19 22:29N 50°02' W 125°15'0 0.0
2017-Jul-19 21:59N 50°02' W 125°15'0 0.2
2017-Jul-19 21:30N 50°02' W 125°15'3 6.6
2017-Jul-19 21:00N 49°59' W 125°12'5 7.1
2017-Jul-19 20:20N 49°55' W 125°08'3 8.8
2017-Jul-19 20:00N 49°53' W 125°05'5 9.3
2017-Jul-19 19:29N 49°50' W 124°59'5 9.4
2017-Jul-19 18:55N 49°46' W 124°54'91 3.4
2017-Jul-18 15:51N 48°38' W 123°21'0 0.0
2017-Jul-18 15:30N 48°38' W 123°21'0 0.0
2017-Jul-18 15:00N 48°38' W 123°21'0 0.0
2017-Jul-18 14:00N 48°38' W 123°21'0 0.0
2017-Jul-18 13:24N 48°38' W 123°21'0 0.0
2017-Jul-18 13:00N 48°38' W 123°21'0 0.0
2017-Jul-18 11:45N 48°38' W 123°21'0 0.0
2017-Jul-18 11:18N 48°38' W 123°21'0 0.0
2017-Jul-18 10:18N 48°38' W 123°21'0 0.0
2017-Jul-18 09:42N 48°38' W 123°21'0 0.0
2017-Jul-18 08:48N 48°38' W 123°21'0 0.0
2017-Jul-18 08:30N 48°38' W 123°21'0 0.0
2017-Jul-18 08:00N 48°38' W 123°21'0 0.0
2017-Jul-18 07:30N 48°38' W 123°21'0 0.0
2017-Jul-18 03:03N 48°38' W 123°21'0 0.0
2017-Jul-18 03:00N 48°38' W 123°21'0 0.0
2017-Jul-18 02:24N 48°38' W 123°21'0 0.0
2017-Jul-18 01:42N 48°38' W 123°21'0 0.0
2017-Jul-18 01:27N 48°38' W 123°21'0 0.0
2017-Jul-18 01:00N 48°38' W 123°21'0 0.0
2017-Jul-18 00:30N 48°38' W 123°21'0 0.0
2017-Jul-17 23:54N 48°38' W 123°21'0 0.0
2017-Jul-17 23:30N 48°38' W 123°21'0 0.0
2017-Jul-17 23:00N 48°38' W 123°21'0 0.0
2017-Jul-17 22:30N 48°38' W 123°21'0 0.0
2017-Jul-17 22:00N 48°38' W 123°21'0 0.0
2017-Jul-17 21:30N 48°38' W 123°21'0 0.0
2017-Jul-17 19:06N 48°38' W 123°21'0 0.0
2017-Jul-17 19:00N 48°38' W 123°21'1 1.8
2017-Jul-17 18:30N 48°39' W 123°22'1 2.5
2017-Jul-17 18:00N 48°39' W 123°24'5 7.2
2017-Jul-17 17:23N 48°36' W 123°19'4 7.7
2017-Jul-17 16:55N 48°33' W 123°16'3 8.0
2017-Jul-17 16:30N 48°30' W 123°14'4 7.6
2017-Jul-17 16:00N 48°27' W 123°10'4 7.3
2017-Jul-17 15:30N 48°24' W 123°07'38 2.2
2017-Jul-16 22:45N 47°55' W 122°31'2 9.4
2017-Jul-16 22:30N 47°53' W 122°29'4 8.5
2017-Jul-16 22:00N 47°49' W 122°27'4 8.4
2017-Jul-16 21:30N 47°45' W 122°26'4 8.1
2017-Jul-16 21:00N 47°41' W 122°25'1 2.8
2017-Jul-16 20:30N 47°40' W 122°24'0 0.2
2017-Jul-16 19:59N 47°40' W 122°24'0 0.0
2017-Jul-16 19:30N 47°40' W 122°24'2 1.5
2017-Jul-16 17:57N 47°39' W 122°21'0 0.1
2017-Jul-16 17:30N 47°39' W 122°21'0 0.8
2017-Jul-16 16:55N 47°38' W 122°20'0 0.0
2017-Jul-16 16:29N 47°38' W 122°20'0 0.0
2017-Jul-16 15:55N 47°38' W 122°20'0 0.0
2017-Jul-16 15:25N 47°38' W 122°20'0 0.0
2017-Jul-16 14:55N 47°38' W 122°20'0 0.0
2017-Jul-16 14:25N 47°38' W 122°20'0 0.0
2017-Jul-16 13:55N 47°38' W 122°20'0 0.0
2017-Jul-16 13:25N 47°38' W 122°20'0 0.0
2017-Jul-16 12:55N 47°38' W 122°20'0 0.0
2017-Jul-16 12:25N 47°38' W 122°20'0 0.0
2017-Jul-16 11:55N 47°38' W 122°20'0 0.0
2017-Jul-16 11:25N 47°38' W 122°20'0 0.0
2017-Jul-16 10:55N 47°38' W 122°20'0 0.0
2017-Jul-16 10:25N 47°38' W 122°20'0 0.0
2017-Jul-16 09:55N 47°38' W 122°20'0 0.0
2017-Jul-16 09:29N 47°38' W 122°20'0 0.0
2017-Jul-16 08:53N 47°38' W 122°20'0 0.0
2017-Jul-16 08:28N 47°38' W 122°20'0 0.0
2017-Jul-16 07:59N 47°38' W 122°20'0 0.0
2017-Jul-16 07:19N 47°38' W 122°20'0 0.0
2017-Jul-16 06:55N 47°38' W 122°20'0 0.0
2017-Jul-16 06:26N 47°38' W 122°20'0 0.0
2017-Jul-16 05:56N 47°38' W 122°20'0 0.0
2017-Jul-16 05:26N 47°38' W 122°20'0 0.0
2017-Jul-16 04:52N 47°38' W 122°20'0 0.0
2017-Jul-16 04:26N 47°38' W 122°20'0 0.0
2017-Jul-16 03:50N 47°38' W 122°20'0 0.0
2017-Jul-16 03:26N 47°38' W 122°20'0 0.0
2017-Jul-16 02:50N 47°38' W 122°20'0 0.0
2017-Jul-16 02:26N 47°38' W 122°20'0 0.0
2017-Jul-16 01:58N 47°38' W 122°20'0 0.0
2017-Jul-16 01:19N 47°38' W 122°20'0 0.0
2017-Jul-16 00:55N 47°38' W 122°20'0 0.0
2017-Jul-15 22:31N 47°38' W 122°20'0 0.0
2017-Jul-15 22:04N 47°38' W 122°20'0 0.0
2017-Jul-15 21:46N 47°38' W 122°20'0 0.0
2017-Jul-15 21:28N 47°38' W 122°20'0 0.0
2017-Jul-15 20:52N 47°38' W 122°20'0 0.0
2017-Jul-15 20:28N 47°38' W 122°20'0 0.0
2017-Jul-15 19:58N 47°38' W 122°20'0 0.0
2017-Jul-15 18:22N 47°38' W 122°20'0 0.0
2017-Jul-15 17:52N 47°38' W 122°20'0 0.0
2017-Jul-15 17:01N 47°38' W 122°20'0 0.0
2017-Jul-15 16:34N 47°38' W 122°20'0 0.0
2017-Jul-15 16:28N 47°38' W 122°20'0 0.0
2017-Jul-15 15:55N 47°38' W 122°20'0 0.0
2017-Jul-15 15:28N 47°38' W 122°20'0 0.0
2017-Jul-15 14:58N 47°38' W 122°20'0 0.0
2017-Jul-15 13:58N 47°38' W 122°20'0 0.0
2017-Jul-15 13:28N 47°38' W 122°20'0 0.0
2017-Jul-15 12:58N 47°38' W 122°20'0 0.0
2017-Jul-15 12:28N 47°38' W 122°20'0 0.0
2017-Jul-15 11:56N 47°38' W 122°20'0 0.0
2017-Jul-15 11:28N 47°38' W 122°20'0 0.0
2017-Jul-15 10:58N 47°38' W 122°20'0 0.0
2017-Jul-15 10:28N 47°38' W 122°20'0 0.0
2017-Jul-15 09:58N 47°38' W 122°20'0 0.0
2017-Jul-15 09:28N 47°38' W 122°20'0 0.0
2017-Jul-15 08:59N 47°38' W 122°20'0 0.0
2017-Jul-15 08:29N 47°38' W 122°20'0 0.0
2017-Jul-15 07:58N 47°38' W 122°20'0 0.0
2017-Jul-15 07:28N 47°38' W 122°20'0 0.0
2017-Jul-15 06:58N 47°38' W 122°20'0 0.0
2017-Jul-15 06:28N 47°38' W 122°20'0 0.0
2017-Jul-15 05:59N 47°38' W 122°20'0 0.0
2017-Jul-15 05:29N 47°38' W 122°20'0 0.0
2017-Jul-15 04:58N 47°38' W 122°20'0 0.0
2017-Jul-15 04:11N 47°38' W 122°20'0 0.0
2017-Jul-15 03:55N 47°38' W 122°20'0 0.0
2017-Jul-15 03:19N 47°38' W 122°20'0 0.0
2017-Jul-15 02:49N 47°38' W 122°20'0 0.0
2017-Jul-15 02:29N 47°38' W 122°20'0 0.0
2017-Jul-15 01:55N 47°38' W 122°20'0 0.0
2017-Jul-15 01:28N 47°38' W 122°20'0 0.0
2017-Jul-15 00:46N 47°38' W 122°20'0 0.0
2017-Jul-15 00:22N 47°38' W 122°20'0 0.0
2017-Jul-14 23:58N 47°38' W 122°20'0 0.0
2017-Jul-14 23:25N 47°38' W 122°20'0 0.0
2017-Jul-14 22:58N 47°38' W 122°20'0 0.0
2017-Jul-14 22:28N 47°38' W 122°20'0 0.0
2017-Jul-14 21:58N 47°38' W 122°20'1 3.0
2017-Jul-14 21:30N 47°39' W 122°22'1 1.8
2017-Jul-14 21:00N 47°40' W 122°23'0 0.0
2017-Jul-14 20:30N 47°40' W 122°23'0 0.0
2017-Jul-14 20:00N 47°40' W 122°23'0 0.0
2017-Jul-14 19:30N 47°40' W 122°23'0 0.0
2017-Jul-14 19:00N 47°40' W 122°23'0 0.0
2017-Jul-14 18:30N 47°40' W 122°23'0 0.0
2017-Jul-14 18:00N 47°40' W 122°23'0 0.0
2017-Jul-14 17:31N 47°40' W 122°23'0 0.0
2017-Jul-14 17:00N 47°40' W 122°23'0 0.0
2017-Jul-14 16:30N 47°40' W 122°23'0 0.0
2017-Jul-14 16:00N 47°40' W 122°23'0 0.0
2017-Jul-14 15:30N 47°40' W 122°23'0 0.0
2017-Jul-14 15:00N 47°40' W 122°23'0 0.0
2017-Jul-14 14:30N 47°40' W 122°23'0 0.0
2017-Jul-14 14:00N 47°40' W 122°23'0 0.0
2017-Jul-14 13:30N 47°40' W 122°23'0 0.0
2017-Jul-14 13:00N 47°40' W 122°23'0 0.0
2017-Jul-14 12:30N 47°40' W 122°23'0 0.0
2017-Jul-14 12:00N 47°40' W 122°23'0 0.0
2017-Jul-14 11:30N 47°40' W 122°23'0 0.0
2017-Jul-14 11:00N 47°40' W 122°23'0 0.0
2017-Jul-14 10:30N 47°40' W 122°23'0 0.0
2017-Jul-14 10:01N 47°40' W 122°23'0 0.0
2017-Jul-14 09:31N 47°40' W 122°23'0 0.0
2017-Jul-14 09:00N 47°40' W 122°23'0 0.0
2017-Jul-14 08:30N 47°40' W 122°23'0 0.0
2017-Jul-14 08:00N 47°40' W 122°23'0 0.0
2017-Jul-14 07:30N 47°40' W 122°23'0 0.0
2017-Jul-14 07:00N 47°40' W 122°23'0 0.0
2017-Jul-14 06:30N 47°40' W 122°23'0 0.0
2017-Jul-14 06:00N 47°40' W 122°23'0 0.0
2017-Jul-14 05:30N 47°40' W 122°23'0 0.0
2017-Jul-14 05:00N 47°40' W 122°23'0 0.0
2017-Jul-14 04:30N 47°40' W 122°23'0 0.0
2017-Jul-14 04:00N 47°40' W 122°23'0 0.0
2017-Jul-14 03:30N 47°40' W 122°23'0 0.0
2017-Jul-14 03:00N 47°40' W 122°23'0 0.0
2017-Jul-14 02:30N 47°40' W 122°23'0 0.0
2017-Jul-14 02:00N 47°40' W 122°23'0 0.0
2017-Jul-14 01:30N 47°40' W 122°23'0 0.0
2017-Jul-14 01:00N 47°40' W 122°23'0 0.0
2017-Jul-14 00:30N 47°40' W 122°23'0 0.0
2017-Jul-14 00:00N 47°40' W 122°23'0 0.0
2017-Jul-13 23:30N 47°40' W 122°23'0 0.0
2017-Jul-13 23:00N 47°40' W 122°23'0 0.0
2017-Jul-13 22:30N 47°40' W 122°23'0 0.0
2017-Jul-13 22:00N 47°40' W 122°23'0 0.0
2017-Jul-13 21:30N 47°40' W 122°23'0 0.0
2017-Jul-13 21:00N 47°40' W 122°23'0 0.0
2017-Jul-13 20:30N 47°40' W 122°23'0 0.0
2017-Jul-13 20:00N 47°40' W 122°23'0 0.0
2017-Jul-13 19:30N 47°40' W 122°23'0 0.0
2017-Jul-13 19:00N 47°40' W 122°23'0 0.0
2017-Jul-13 18:30N 47°40' W 122°23'0 0.0
2017-Jul-13 18:00N 47°40' W 122°23'  
Track history (hours):
 
Tides and Currents Weather Stations Pressure Air Temp Water Temp Dewpoint Dewpoint Depression Visibility Wind Speed Wind Dir Waves Ship Positions

Porosity

Owner: Bahlburg, Bill, plano, TX. More information available from US FCC via Universal Licensing System and Coast Guard Vessel Documentation Center.

Last reported at 2017-Jul-23 17:44 UTC. Time now 2017-Aug-18 02:43 UTC.
Position N 51°53' W 127°57'.
Warning: this ship's position is 25 days out of date.

Length 19 m.

Type: Pleasure craft. MMSI: 367488010.

Date/timePositionNaut miles runAvg speedWind from/ knotsBaromVisibWave heightAir tempDewpointWater temp
2017-Jul-23 17:44N 51°53' W 127°57'2 8.5
2017-Jul-23 17:29N 51°51' W 127°56'4 8.6
2017-Jul-23 17:00N 51°47' W 127°56'4 8.7
2017-Jul-23 16:30N 51°42' W 127°55'4 8.9
2017-Jul-23 16:00N 51°38' W 127°54'31 1.7
2017-Jul-22 22:11N 51°07' W 127°46'2 8.5
2017-Jul-22 22:00N 51°06' W 127°44'4 8.5
2017-Jul-22 21:30N 51°03' W 127°40'4 8.7
2017-Jul-22 21:00N 50°60' W 127°36'4 8.1
2017-Jul-22 20:31N 50°57' W 127°31'4 7.6
2017-Jul-22 20:00N 50°54' W 127°27'3 6.6
2017-Jul-22 19:30N 50°51' W 127°24'4 8.3
2017-Jul-22 19:01N 50°48' W 127°21'4 8.5
2017-Jul-22 18:30N 50°44' W 127°17'4 8.6
2017-Jul-22 18:01N 50°41' W 127°13'4 8.1
2017-Jul-22 17:31N 50°37' W 127°09'4 7.5
2017-Jul-22 17:01N 50°36' W 127°04'1 2.7
2017-Jul-22 16:30N 50°36' W 127°05'0 0.0
2017-Jul-22 16:00N 50°36' W 127°05'0 0.0
2017-Jul-22 15:30N 50°36' W 127°05'0 0.0
2017-Jul-22 15:00N 50°36' W 127°05'0 0.0
2017-Jul-22 14:00N 50°36' W 127°05'0 0.0
2017-Jul-22 13:30N 50°36' W 127°05'0 0.0
2017-Jul-22 13:00N 50°36' W 127°05'0 0.0
2017-Jul-22 12:30N 50°36' W 127°05'0 0.0
2017-Jul-22 12:00N 50°36' W 127°05'0 0.0
2017-Jul-22 11:30N 50°36' W 127°05'0 0.0
2017-Jul-22 11:00N 50°36' W 127°05'0 0.0
2017-Jul-22 10:30N 50°36' W 127°05'0 0.0
2017-Jul-22 10:00N 50°36' W 127°05'0 0.0
2017-Jul-22 09:30N 50°36' W 127°05'0 0.0
2017-Jul-22 09:00N 50°36' W 127°05'0 0.0
2017-Jul-22 08:30N 50°36' W 127°05'0 0.0
2017-Jul-22 08:00N 50°36' W 127°05'0 0.0
2017-Jul-22 07:30N 50°36' W 127°05'0 0.0
2017-Jul-22 07:00N 50°36' W 127°05'0 0.0
2017-Jul-22 06:21N 50°36' W 127°05'0 0.0
2017-Jul-22 05:57N 50°36' W 127°05'69 1.8
2017-Jul-20 15:46N 50°14' W 125°23'3 9.5
2017-Jul-20 15:30N 50°12' W 125°22'5 9.9
2017-Jul-20 15:00N 50°07' W 125°19'6 5.9
2017-Jul-20 13:59N 50°02' W 125°15'0 0.0
2017-Jul-20 13:29N 50°02' W 125°15'0 0.0
2017-Jul-20 12:59N 50°02' W 125°15'0 0.0
2017-Jul-20 12:29N 50°02' W 125°15'0 0.0
2017-Jul-20 11:59N 50°02' W 125°15'0 0.0
2017-Jul-20 11:29N 50°02' W 125°15'0 0.0
2017-Jul-20 10:59N 50°02' W 125°15'0 0.0
2017-Jul-20 10:29N 50°02' W 125°15'0 0.0
2017-Jul-20 09:59N 50°02' W 125°15'0 0.0
2017-Jul-20 09:29N 50°02' W 125°15'0 0.0
2017-Jul-20 08:59N 50°02' W 125°15'0 0.0
2017-Jul-20 08:29N 50°02' W 125°15'0 0.0
2017-Jul-20 07:59N 50°02' W 125°15'0 0.0
2017-Jul-20 07:29N 50°02' W 125°15'0 0.0
2017-Jul-20 06:59N 50°02' W 125°15'0 0.0
2017-Jul-20 06:29N 50°02' W 125°15'0 0.0
2017-Jul-20 05:59N 50°02' W 125°15'0 0.0
2017-Jul-20 05:29N 50°02' W 125°15'0 0.0
2017-Jul-20 04:59N 50°02' W 125°15'0 0.0
2017-Jul-20 04:29N 50°02' W 125°15'0 0.0
2017-Jul-20 03:59N 50°02' W 125°15'0 0.0
2017-Jul-20 03:29N 50°02' W 125°15'0 0.0
2017-Jul-20 02:59N 50°02' W 125°15'0 0.0
2017-Jul-20 02:29N 50°02' W 125°15'0 0.0
2017-Jul-20 01:59N 50°02' W 125°15'0 0.0
2017-Jul-20 01:29N 50°02' W 125°15'0 0.0
2017-Jul-20 00:59N 50°02' W 125°15'0 0.0
2017-Jul-20 00:29N 50°02' W 125°15'0 0.0
2017-Jul-19 23:59N 50°02' W 125°15'0 0.0
2017-Jul-19 23:23N 50°02' W 125°15'0 0.0
2017-Jul-19 22:59N 50°02' W 125°15'0 0.0
2017-Jul-19 22:29N 50°02' W 125°15'0 0.0
2017-Jul-19 21:59N 50°02' W 125°15'0 0.2
2017-Jul-19 21:30N 50°02' W 125°15'3 6.6
2017-Jul-19 21:00N 49°59' W 125°12'5 7.1
2017-Jul-19 20:20N 49°55' W 125°08'3 8.8
2017-Jul-19 20:00N 49°53' W 125°05'5 9.3
2017-Jul-19 19:29N 49°50' W 124°59'5 9.4
2017-Jul-19 18:55N 49°46' W 124°54'91 3.4
2017-Jul-18 15:51N 48°38' W 123°21'0 0.0
2017-Jul-18 15:30N 48°38' W 123°21'0 0.0
2017-Jul-18 15:00N 48°38' W 123°21'0 0.0
2017-Jul-18 14:00N 48°38' W 123°21'0 0.0
2017-Jul-18 13:24N 48°38' W 123°21'0 0.0
2017-Jul-18 13:00N 48°38' W 123°21'0 0.0
2017-Jul-18 11:45N 48°38' W 123°21'0 0.0
2017-Jul-18 11:18N 48°38' W 123°21'0 0.0
2017-Jul-18 10:18N 48°38' W 123°21'0 0.0
2017-Jul-18 09:42N 48°38' W 123°21'0 0.0
2017-Jul-18 08:48N 48°38' W 123°21'0 0.0
2017-Jul-18 08:30N 48°38' W 123°21'0 0.0
2017-Jul-18 08:00N 48°38' W 123°21'0 0.0
2017-Jul-18 07:30N 48°38' W 123°21'0 0.0
2017-Jul-18 03:03N 48°38' W 123°21'0 0.0
2017-Jul-18 03:00N 48°38' W 123°21'0 0.0
2017-Jul-18 02:24N 48°38' W 123°21'0 0.0
2017-Jul-18 01:42N 48°38' W 123°21'0 0.0
2017-Jul-18 01:27N 48°38' W 123°21'0 0.0
2017-Jul-18 01:00N 48°38' W 123°21'0 0.0
2017-Jul-18 00:30N 48°38' W 123°21'0 0.0
2017-Jul-17 23:54N 48°38' W 123°21'0 0.0
2017-Jul-17 23:30N 48°38' W 123°21'0 0.0
2017-Jul-17 23:00N 48°38' W 123°21'0 0.0
2017-Jul-17 22:30N 48°38' W 123°21'0 0.0
2017-Jul-17 22:00N 48°38' W 123°21'0 0.0
2017-Jul-17 21:30N 48°38' W 123°21'0 0.0
2017-Jul-17 19:06N 48°38' W 123°21'0 0.0
2017-Jul-17 19:00N 48°38' W 123°21'1 1.8
2017-Jul-17 18:30N 48°39' W 123°22'1 2.5
2017-Jul-17 18:00N 48°39' W 123°24'5 7.2
2017-Jul-17 17:23N 48°36' W 123°19'4 7.7
2017-Jul-17 16:55N 48°33' W 123°16'3 8.0
2017-Jul-17 16:30N 48°30' W 123°14'4 7.6
2017-Jul-17 16:00N 48°27' W 123°10'4 7.3
2017-Jul-17 15:30N 48°24' W 123°07'38 2.2
2017-Jul-16 22:45N 47°55' W 122°31'2 9.4
2017-Jul-16 22:30N 47°53' W 122°29'4 8.5
2017-Jul-16 22:00N 47°49' W 122°27'4 8.4
2017-Jul-16 21:30N 47°45' W 122°26'4 8.1
2017-Jul-16 21:00N 47°41' W 122°25'1 2.8
2017-Jul-16 20:30N 47°40' W 122°24'0 0.2
2017-Jul-16 19:59N 47°40' W 122°24'0 0.0
2017-Jul-16 19:30N 47°40' W 122°24'2 1.5
2017-Jul-16 17:57N 47°39' W 122°21'0 0.1
2017-Jul-16 17:30N 47°39' W 122°21'0 0.8
2017-Jul-16 16:55N 47°38' W 122°20'0 0.0
2017-Jul-16 16:29N 47°38' W 122°20'0 0.0
2017-Jul-16 15:55N 47°38' W 122°20'0 0.0
2017-Jul-16 15:25N 47°38' W 122°20'0 0.0
2017-Jul-16 14:55N 47°38' W 122°20'0 0.0
2017-Jul-16 14:25N 47°38' W 122°20'0 0.0
2017-Jul-16 13:55N 47°38' W 122°20'0 0.0
2017-Jul-16 13:25N 47°38' W 122°20'0 0.0
2017-Jul-16 12:55N 47°38' W 122°20'0 0.0
2017-Jul-16 12:25N 47°38' W 122°20'0 0.0
2017-Jul-16 11:55N 47°38' W 122°20'0 0.0
2017-Jul-16 11:25N 47°38' W 122°20'0 0.0
2017-Jul-16 10:55N 47°38' W 122°20'0 0.0
2017-Jul-16 10:25N 47°38' W 122°20'0 0.0
2017-Jul-16 09:55N 47°38' W 122°20'0 0.0
2017-Jul-16 09:29N 47°38' W 122°20'0 0.0
2017-Jul-16 08:53N 47°38' W 122°20'0 0.0
2017-Jul-16 08:28N 47°38' W 122°20'0 0.0
2017-Jul-16 07:59N 47°38' W 122°20'0 0.0
2017-Jul-16 07:19N 47°38' W 122°20'0 0.0
2017-Jul-16 06:55N 47°38' W 122°20'0 0.0
2017-Jul-16 06:26N 47°38' W 122°20'0 0.0
2017-Jul-16 05:56N 47°38' W 122°20'0 0.0
2017-Jul-16 05:26N 47°38' W 122°20'0 0.0
2017-Jul-16 04:52N 47°38' W 122°20'0 0.0
2017-Jul-16 04:26N 47°38' W 122°20'0 0.0
2017-Jul-16 03:50N 47°38' W 122°20'0 0.0
2017-Jul-16 03:26N 47°38' W 122°20'0 0.0
2017-Jul-16 02:50N 47°38' W 122°20'0 0.0
2017-Jul-16 02:26N 47°38' W 122°20'0 0.0
2017-Jul-16 01:58N 47°38' W 122°20'0 0.0
2017-Jul-16 01:19N 47°38' W 122°20'0 0.0
2017-Jul-16 00:55N 47°38' W 122°20'0 0.0
2017-Jul-15 22:31N 47°38' W 122°20'0 0.0
2017-Jul-15 22:04N 47°38' W 122°20'0 0.0
2017-Jul-15 21:46N 47°38' W 122°20'0 0.0
2017-Jul-15 21:28N 47°38' W 122°20'0 0.0
2017-Jul-15 20:52N 47°38' W 122°20'0 0.0
2017-Jul-15 20:28N 47°38' W 122°20'0 0.0
2017-Jul-15 19:58N 47°38' W 122°20'0 0.0
2017-Jul-15 18:22N 47°38' W 122°20'0 0.0
2017-Jul-15 17:52N 47°38' W 122°20'0 0.0
2017-Jul-15 17:01N 47°38' W 122°20'0 0.0
2017-Jul-15 16:34N 47°38' W 122°20'0 0.0
2017-Jul-15 16:28N 47°38' W 122°20'0 0.0
2017-Jul-15 15:55N 47°38' W 122°20'0 0.0
2017-Jul-15 15:28N 47°38' W 122°20'0 0.0
2017-Jul-15 14:58N 47°38' W 122°20'0 0.0
2017-Jul-15 13:58N 47°38' W 122°20'0 0.0
2017-Jul-15 13:28N 47°38' W 122°20'0 0.0
2017-Jul-15 12:58N 47°38' W 122°20'0 0.0
2017-Jul-15 12:28N 47°38' W 122°20'0 0.0
2017-Jul-15 11:56N 47°38' W 122°20'0 0.0
2017-Jul-15 11:28N 47°38' W 122°20'0 0.0
2017-Jul-15 10:58N 47°38' W 122°20'0 0.0
2017-Jul-15 10:28N 47°38' W 122°20'0 0.0
2017-Jul-15 09:58N 47°38' W 122°20'0 0.0
2017-Jul-15 09:28N 47°38' W 122°20'0 0.0
2017-Jul-15 08:59N 47°38' W 122°20'0 0.0
2017-Jul-15 08:29N 47°38' W 122°20'0 0.0
2017-Jul-15 07:58N 47°38' W 122°20'0 0.0
2017-Jul-15 07:28N 47°38' W 122°20'0 0.0
2017-Jul-15 06:58N 47°38' W 122°20'0 0.0
2017-Jul-15 06:28N 47°38' W 122°20'0 0.0
2017-Jul-15 05:59N 47°38' W 122°20'0 0.0
2017-Jul-15 05:29N 47°38' W 122°20'0 0.0
2017-Jul-15 04:58N 47°38' W 122°20'0 0.0
2017-Jul-15 04:11N 47°38' W 122°20'0 0.0
2017-Jul-15 03:55N 47°38' W 122°20'0 0.0
2017-Jul-15 03:19N 47°38' W 122°20'0 0.0
2017-Jul-15 02:49N 47°38' W 122°20'0 0.0
2017-Jul-15 02:29N 47°38' W 122°20'0 0.0
2017-Jul-15 01:55N 47°38' W 122°20'0 0.0
2017-Jul-15 01:28N 47°38' W 122°20'0 0.0
2017-Jul-15 00:46N 47°38' W 122°20'0 0.0
2017-Jul-15 00:22N 47°38' W 122°20'0 0.0
2017-Jul-14 23:58N 47°38' W 122°20'0 0.0
2017-Jul-14 23:25N 47°38' W 122°20'0 0.0
2017-Jul-14 22:58N 47°38' W 122°20'0 0.0
2017-Jul-14 22:28N 47°38' W 122°20'0 0.0
2017-Jul-14 21:58N 47°38' W 122°20'1 3.0
2017-Jul-14 21:30N 47°39' W 122°22'1 1.8
2017-Jul-14 21:00N 47°40' W 122°23'0 0.0
2017-Jul-14 20:30N 47°40' W 122°23'0 0.0
2017-Jul-14 20:00N 47°40' W 122°23'0 0.0
2017-Jul-14 19:30N 47°40' W 122°23'0 0.0
2017-Jul-14 19:00N 47°40' W 122°23'0 0.0
2017-Jul-14 18:30N 47°40' W 122°23'0 0.0
2017-Jul-14 18:00N 47°40' W 122°23'0 0.0
2017-Jul-14 17:31N 47°40' W 122°23'0 0.0
2017-Jul-14 17:00N 47°40' W 122°23'0 0.0
2017-Jul-14 16:30N 47°40' W 122°23'0 0.0
2017-Jul-14 16:00N 47°40' W 122°23'0 0.0
2017-Jul-14 15:30N 47°40' W 122°23'0 0.0
2017-Jul-14 15:00N 47°40' W 122°23'0 0.0
2017-Jul-14 14:30N 47°40' W 122°23'0 0.0
2017-Jul-14 14:00N 47°40' W 122°23'0 0.0
2017-Jul-14 13:30N 47°40' W 122°23'0 0.0
2017-Jul-14 13:00N 47°40' W 122°23'0 0.0
2017-Jul-14 12:30N 47°40' W 122°23'0 0.0
2017-Jul-14 12:00N 47°40' W 122°23'0 0.0
2017-Jul-14 11:30N 47°40' W 122°23'0 0.0
2017-Jul-14 11:00N 47°40' W 122°23'0 0.0
2017-Jul-14 10:30N 47°40' W 122°23'0 0.0
2017-Jul-14 10:01N 47°40' W 122°23'0 0.0
2017-Jul-14 09:31N 47°40' W 122°23'0 0.0
2017-Jul-14 09:00N 47°40' W 122°23'0 0.0
2017-Jul-14 08:30N 47°40' W 122°23'0 0.0
2017-Jul-14 08:00N 47°40' W 122°23'0 0.0
2017-Jul-14 07:30N 47°40' W 122°23'0 0.0
2017-Jul-14 07:00N 47°40' W 122°23'0 0.0
2017-Jul-14 06:30N 47°40' W 122°23'0 0.0
2017-Jul-14 06:00N 47°40' W 122°23'0 0.0
2017-Jul-14 05:30N 47°40' W 122°23'0 0.0
2017-Jul-14 05:00N 47°40' W 122°23'0 0.0
2017-Jul-14 04:30N 47°40' W 122°23'0 0.0
2017-Jul-14 04:00N 47°40' W 122°23'0 0.0
2017-Jul-14 03:30N 47°40' W 122°23'0 0.0
2017-Jul-14 03:00N 47°40' W 122°23'0 0.0
2017-Jul-14 02:30N 47°40' W 122°23'0 0.0
2017-Jul-14 02:00N 47°40' W 122°23'0 0.0
2017-Jul-14 01:30N 47°40' W 122°23'0 0.0
2017-Jul-14 01:00N 47°40' W 122°23'0 0.0
2017-Jul-14 00:30N 47°40' W 122°23'0 0.0
2017-Jul-14 00:00N 47°40' W 122°23'0 0.0
2017-Jul-13 23:30N 47°40' W 122°23'0 0.0
2017-Jul-13 23:00N 47°40' W 122°23'0 0.0
2017-Jul-13 22:30N 47°40' W 122°23'0 0.0
2017-Jul-13 22:00N 47°40' W 122°23'0 0.0
2017-Jul-13 21:30N 47°40' W 122°23'0 0.0
2017-Jul-13 21:00N 47°40' W 122°23'0 0.0
2017-Jul-13 20:30N 47°40' W 122°23'0 0.0
2017-Jul-13 20:00N 47°40' W 122°23'0 0.0
2017-Jul-13 19:30N 47°40' W 122°23'0 0.0
2017-Jul-13 19:00N 47°40' W 122°23'0 0.0
2017-Jul-13 18:30N 47°40' W 122°23'0 0.0
2017-Jul-13 18:00N 47°40' W 122°23'  

Dump ship's entire track history